sensor_id;sensor_type;location;lat;lon;timestamp;temperature;humidity
65048;DHT22;52089;51.362;-2.384;2023-01-24T00:02:29;12.70;96.10
65048;DHT22;52089;51.362;-2.384;2023-01-24T00:06:12;12.70;96.10
65048;DHT22;52089;51.362;-2.384;2023-01-24T00:09:53;12.70;96.00
65048;DHT22;52089;51.362;-2.384;2023-01-24T00:13:36;12.60;96.00
65048;DHT22;52089;51.362;-2.384;2023-01-24T00:17:18;12.60;95.80
65048;DHT22;52089;51.362;-2.384;2023-01-24T00:21:12;12.60;95.70
65048;DHT22;52089;51.362;-2.384;2023-01-24T00:24:54;12.70;95.60
65048;DHT22;52089;51.362;-2.384;2023-01-24T00:28:36;12.70;95.70
65048;DHT22;52089;51.362;-2.384;2023-01-24T00:32:18;12.60;95.60
65048;DHT22;52089;51.362;-2.384;2023-01-24T00:36:00;12.70;95.50
65048;DHT22;52089;51.362;-2.384;2023-01-24T00:39:41;12.60;95.50
65048;DHT22;52089;51.362;-2.384;2023-01-24T00:43:23;12.70;95.50
65048;DHT22;52089;51.362;-2.384;2023-01-24T00:47:07;12.60;95.30
65048;DHT22;52089;51.362;-2.384;2023-01-24T00:50:49;12.70;95.30
65048;DHT22;52089;51.362;-2.384;2023-01-24T00:54:31;12.60;95.20
65048;DHT22;52089;51.362;-2.384;2023-01-24T00:58:13;12.70;95.20
65048;DHT22;52089;51.362;-2.384;2023-01-24T01:01:55;12.70;95.00
65048;DHT22;52089;51.362;-2.384;2023-01-24T01:05:36;12.60;95.00
65048;DHT22;52089;51.362;-2.384;2023-01-24T01:09:18;12.60;94.90
65048;DHT22;52089;51.362;-2.384;2023-01-24T01:13:00;12.60;94.80
65048;DHT22;52089;51.362;-2.384;2023-01-24T01:16:42;12.70;94.90
65048;DHT22;52089;51.362;-2.384;2023-01-24T01:20:24;12.60;94.70
65048;DHT22;52089;51.362;-2.384;2023-01-24T01:24:05;12.60;94.60
65048;DHT22;52089;51.362;-2.384;2023-01-24T01:27:47;12.60;94.60
65048;DHT22;52089;51.362;-2.384;2023-01-24T01:31:29;12.60;94.50
65048;DHT22;52089;51.362;-2.384;2023-01-24T01:35:11;12.60;94.50
65048;DHT22;52089;51.362;-2.384;2023-01-24T01:38:53;12.60;94.40
65048;DHT22;52089;51.362;-2.384;2023-01-24T01:46:30;12.60;94.20
65048;DHT22;52089;51.362;-2.384;2023-01-24T01:50:26;12.60;94.20
65048;DHT22;52089;51.362;-2.384;2023-01-24T01:54:31;12.60;94.20
65048;DHT22;52089;51.362;-2.384;2023-01-24T01:58:17;12.60;94.10
65048;DHT22;52089;51.362;-2.384;2023-01-24T02:02:00;12.60;94.00
65048;DHT22;52089;51.362;-2.384;2023-01-24T02:05:43;12.60;94.00
65048;DHT22;52089;51.362;-2.384;2023-01-24T02:09:29;12.60;93.90
65048;DHT22;52089;51.362;-2.384;2023-01-24T02:13:13;12.60;93.70
65048;DHT22;52089;51.362;-2.384;2023-01-24T02:16:55;12.60;93.80
65048;DHT22;52089;51.362;-2.384;2023-01-24T02:20:43;12.60;93.80
65048;DHT22;52089;51.362;-2.384;2023-01-24T02:24:32;12.60;93.60
65048;DHT22;52089;51.362;-2.384;2023-01-24T02:28:16;12.60;93.50
65048;DHT22;52089;51.362;-2.384;2023-01-24T02:32:00;12.60;93.60
65048;DHT22;52089;51.362;-2.384;2023-01-24T02:35:43;12.60;93.40
65048;DHT22;52089;51.362;-2.384;2023-01-24T02:39:55;12.60;93.50
65048;DHT22;52089;51.362;-2.384;2023-01-24T02:43:42;12.50;93.40
65048;DHT22;52089;51.362;-2.384;2023-01-24T02:47:30;12.60;93.20
65048;DHT22;52089;51.362;-2.384;2023-01-24T02:51:14;12.60;93.20
65048;DHT22;52089;51.362;-2.384;2023-01-24T02:55:14;12.60;93.30
65048;DHT22;52089;51.362;-2.384;2023-01-24T02:58:56;12.60;93.20
65048;DHT22;52089;51.362;-2.384;2023-01-24T03:02:38;12.60;93.20
65048;DHT22;52089;51.362;-2.384;2023-01-24T03:06:19;12.60;93.10
65048;DHT22;52089;51.362;-2.384;2023-01-24T03:10:01;12.60;93.00
65048;DHT22;52089;51.362;-2.384;2023-01-24T03:13:43;12.60;92.90
65048;DHT22;52089;51.362;-2.384;2023-01-24T03:17:43;12.50;92.90
65048;DHT22;52089;51.362;-2.384;2023-01-24T03:21:44;12.60;92.90
65048;DHT22;52089;51.362;-2.384;2023-01-24T03:25:44;12.60;92.80
65048;DHT22;52089;51.362;-2.384;2023-01-24T03:29:45;12.60;92.80
65048;DHT22;52089;51.362;-2.384;2023-01-24T03:33:45;12.60;92.70
65048;DHT22;52089;51.362;-2.384;2023-01-24T03:37:46;12.50;92.60
65048;DHT22;52089;51.362;-2.384;2023-01-24T03:41:46;12.50;92.70
65048;DHT22;52089;51.362;-2.384;2023-01-24T03:45:34;12.60;92.60
65048;DHT22;52089;51.362;-2.384;2023-01-24T03:49:16;12.50;92.40
65048;DHT22;52089;51.362;-2.384;2023-01-24T03:52:58;12.50;92.40
65048;DHT22;52089;51.362;-2.384;2023-01-24T03:56:40;12.50;92.40
65048;DHT22;52089;51.362;-2.384;2023-01-24T04:00:22;12.50;92.40
65048;DHT22;52089;51.362;-2.384;2023-01-24T04:04:03;12.50;92.30
65048;DHT22;52089;51.362;-2.384;2023-01-24T04:07:46;12.50;92.20
65048;DHT22;52089;51.362;-2.384;2023-01-24T04:11:28;12.50;92.10
65048;DHT22;52089;51.362;-2.384;2023-01-24T04:15:15;12.50;92.10
65048;DHT22;52089;51.362;-2.384;2023-01-24T04:18:58;12.50;91.90
65048;DHT22;52089;51.362;-2.384;2023-01-24T04:22:40;12.50;91.90
65048;DHT22;52089;51.362;-2.384;2023-01-24T04:26:22;12.50;91.80
65048;DHT22;52089;51.362;-2.384;2023-01-24T04:30:08;12.50;91.90
65048;DHT22;52089;51.362;-2.384;2023-01-24T04:33:50;12.50;91.60
65048;DHT22;52089;51.362;-2.384;2023-01-24T04:37:32;12.50;91.70
65048;DHT22;52089;51.362;-2.384;2023-01-24T04:41:14;12.50;91.60
65048;DHT22;52089;51.362;-2.384;2023-01-24T04:44:56;12.50;91.60
65048;DHT22;52089;51.362;-2.384;2023-01-24T04:48:38;12.50;91.50
65048;DHT22;52089;51.362;-2.384;2023-01-24T04:52:20;12.50;91.60
65048;DHT22;52089;51.362;-2.384;2023-01-24T04:56:02;12.50;91.40
65048;DHT22;52089;51.362;-2.384;2023-01-24T04:59:44;12.50;91.30
65048;DHT22;52089;51.362;-2.384;2023-01-24T05:03:26;12.50;91.20
65048;DHT22;52089;51.362;-2.384;2023-01-24T05:07:08;12.50;91.20
65048;DHT22;52089;51.362;-2.384;2023-01-24T05:10:50;12.50;91.10
65048;DHT22;52089;51.362;-2.384;2023-01-24T05:14:32;12.50;91.10
65048;DHT22;52089;51.362;-2.384;2023-01-24T05:18:14;12.50;91.00
65048;DHT22;52089;51.362;-2.384;2023-01-24T05:21:56;12.50;90.90
65048;DHT22;52089;51.362;-2.384;2023-01-24T05:25:37;12.50;90.90
65048;DHT22;52089;51.362;-2.384;2023-01-24T05:29:19;12.50;90.80
65048;DHT22;52089;51.362;-2.384;2023-01-24T05:33:01;12.50;90.70
65048;DHT22;52089;51.362;-2.384;2023-01-24T05:36:42;12.50;90.70
65048;DHT22;52089;51.362;-2.384;2023-01-24T05:40:25;12.50;90.60
65048;DHT22;52089;51.362;-2.384;2023-01-24T05:44:06;12.50;90.50
65048;DHT22;52089;51.362;-2.384;2023-01-24T05:47:53;12.50;90.50
65048;DHT22;52089;51.362;-2.384;2023-01-24T05:51:36;12.50;90.30
65048;DHT22;52089;51.362;-2.384;2023-01-24T05:55:18;12.40;90.40
65048;DHT22;52089;51.362;-2.384;2023-01-24T05:58:59;12.40;90.30
65048;DHT22;52089;51.362;-2.384;2023-01-24T06:02:43;12.50;90.30
65048;DHT22;52089;51.362;-2.384;2023-01-24T06:06:25;12.40;90.20
65048;DHT22;52089;51.362;-2.384;2023-01-24T06:10:07;12.50;90.20
65048;DHT22;52089;51.362;-2.384;2023-01-24T06:13:49;12.40;90.10
65048;DHT22;52089;51.362;-2.384;2023-01-24T06:17:31;12.40;90.10
65048;DHT22;52089;51.362;-2.384;2023-01-24T06:25:26;12.50;89.90
65048;DHT22;52089;51.362;-2.384;2023-01-24T06:29:10;12.40;89.80
65048;DHT22;52089;51.362;-2.384;2023-01-24T06:37:36;12.40;89.80
65048;DHT22;52089;51.362;-2.384;2023-01-24T06:41:19;12.40;89.50
65048;DHT22;52089;51.362;-2.384;2023-01-24T06:45:01;12.40;89.40
65048;DHT22;52089;51.362;-2.384;2023-01-24T06:48:44;12.40;89.30
65048;DHT22;52089;51.362;-2.384;2023-01-24T06:52:25;12.40;89.10
65048;DHT22;52089;51.362;-2.384;2023-01-24T06:56:07;12.40;89.60
65048;DHT22;52089;51.362;-2.384;2023-01-24T06:59:50;12.40;89.00
65048;DHT22;52089;51.362;-2.384;2023-01-24T07:03:32;12.40;88.90
65048;DHT22;52089;51.362;-2.384;2023-01-24T07:07:13;12.40;88.70
65048;DHT22;52089;51.362;-2.384;2023-01-24T07:10:57;12.40;88.60
65048;DHT22;52089;51.362;-2.384;2023-01-24T07:14:39;12.40;88.50
65048;DHT22;52089;51.362;-2.384;2023-01-24T07:18:21;12.40;88.50
65048;DHT22;52089;51.362;-2.384;2023-01-24T07:22:03;12.40;88.30
65048;DHT22;52089;51.362;-2.384;2023-01-24T07:25:45;12.40;88.30
65048;DHT22;52089;51.362;-2.384;2023-01-24T07:29:27;12.40;88.10
65048;DHT22;52089;51.362;-2.384;2023-01-24T07:33:09;12.40;88.00
65048;DHT22;52089;51.362;-2.384;2023-01-24T07:36:51;12.40;87.90
65048;DHT22;52089;51.362;-2.384;2023-01-24T07:40:33;12.40;87.80
65048;DHT22;52089;51.362;-2.384;2023-01-24T07:44:14;12.30;87.70
65048;DHT22;52089;51.362;-2.384;2023-01-24T07:47:58;12.40;87.70
65048;DHT22;52089;51.362;-2.384;2023-01-24T07:51:39;12.40;87.50
65048;DHT22;52089;51.362;-2.384;2023-01-24T07:55:22;12.40;88.00
65048;DHT22;52089;51.362;-2.384;2023-01-24T07:59:05;12.40;87.40
65048;DHT22;52089;51.362;-2.384;2023-01-24T08:02:48;12.30;87.20
65048;DHT22;52089;51.362;-2.384;2023-01-24T08:06:30;12.40;87.00
65048;DHT22;52089;51.362;-2.384;2023-01-24T08:10:12;12.30;87.10
65048;DHT22;52089;51.362;-2.384;2023-01-24T08:13:54;12.40;87.00
65048;DHT22;52089;51.362;-2.384;2023-01-24T08:17:37;12.30;86.80
65048;DHT22;52089;51.362;-2.384;2023-01-24T08:21:19;12.30;86.60
65048;DHT22;52089;51.362;-2.384;2023-01-24T08:25:01;12.30;86.60
65048;DHT22;52089;51.362;-2.384;2023-01-24T08:28:43;12.30;86.50
65048;DHT22;52089;51.362;-2.384;2023-01-24T08:32:25;12.30;86.40
65048;DHT22;52089;51.362;-2.384;2023-01-24T08:36:07;12.30;86.40
65048;DHT22;52089;51.362;-2.384;2023-01-24T08:39:49;12.30;86.20
65048;DHT22;52089;51.362;-2.384;2023-01-24T08:43:31;12.30;86.20
65048;DHT22;52089;51.362;-2.384;2023-01-24T08:47:13;12.30;86.00
65048;DHT22;52089;51.362;-2.384;2023-01-24T08:50:54;12.30;86.00
65048;DHT22;52089;51.362;-2.384;2023-01-24T08:54:36;12.30;85.90
65048;DHT22;52089;51.362;-2.384;2023-01-24T08:58:18;12.30;86.00
65048;DHT22;52089;51.362;-2.384;2023-01-24T09:02:00;12.30;85.80
65048;DHT22;52089;51.362;-2.384;2023-01-24T09:05:45;12.30;85.70
65048;DHT22;52089;51.362;-2.384;2023-01-24T09:09:27;12.30;85.60
65048;DHT22;52089;51.362;-2.384;2023-01-24T09:13:09;12.30;85.70
65048;DHT22;52089;51.362;-2.384;2023-01-24T09:16:50;12.30;85.50
65048;DHT22;52089;51.362;-2.384;2023-01-24T09:20:32;12.30;85.40
65048;DHT22;52089;51.362;-2.384;2023-01-24T09:24:14;12.30;85.30
65048;DHT22;52089;51.362;-2.384;2023-01-24T09:27:56;12.30;85.30
65048;DHT22;52089;51.362;-2.384;2023-01-24T09:31:38;12.30;85.20
65048;DHT22;52089;51.362;-2.384;2023-01-24T09:35:20;12.30;85.10
65048;DHT22;52089;51.362;-2.384;2023-01-24T09:39:02;12.30;85.10
65048;DHT22;52089;51.362;-2.384;2023-01-24T09:46:43;12.30;84.70
65048;DHT22;52089;51.362;-2.384;2023-01-24T09:50:51;12.30;84.90
65048;DHT22;52089;51.362;-2.384;2023-01-24T09:54:39;12.30;84.90
65048;DHT22;52089;51.362;-2.384;2023-01-24T09:58:36;12.30;84.60
65048;DHT22;52089;51.362;-2.384;2023-01-24T10:02:22;12.30;84.60
65048;DHT22;52089;51.362;-2.384;2023-01-24T10:06:15;12.30;84.60
65048;DHT22;52089;51.362;-2.384;2023-01-24T10:10:26;12.30;84.40
65048;DHT22;52089;51.362;-2.384;2023-01-24T10:14:29;12.30;84.50
65048;DHT22;52089;51.362;-2.384;2023-01-24T10:22:24;12.40;84.40
65048;DHT22;52089;51.362;-2.384;2023-01-24T10:26:22;12.30;84.20
65048;DHT22;52089;51.362;-2.384;2023-01-24T10:30:18;12.40;84.20
65048;DHT22;52089;51.362;-2.384;2023-01-24T10:34:38;12.40;84.10
65048;DHT22;52089;51.362;-2.384;2023-01-24T10:38:22;12.40;84.50
65048;DHT22;52089;51.362;-2.384;2023-01-24T10:42:25;12.40;84.30
65048;DHT22;52089;51.362;-2.384;2023-01-24T10:50:18;12.40;84.20
65048;DHT22;52089;51.362;-2.384;2023-01-24T10:54:01;12.40;84.20
65048;DHT22;52089;51.362;-2.384;2023-01-24T10:57:48;12.40;84.00
65048;DHT22;52089;51.362;-2.384;2023-01-24T11:01:36;12.40;83.90
65048;DHT22;52089;51.362;-2.384;2023-01-24T11:05:20;12.40;83.70
65048;DHT22;52089;51.362;-2.384;2023-01-24T11:09:10;12.40;83.70
65048;DHT22;52089;51.362;-2.384;2023-01-24T11:12:57;12.40;83.70
65048;DHT22;52089;51.362;-2.384;2023-01-24T11:16:42;12.40;83.70
65048;DHT22;52089;51.362;-2.384;2023-01-24T11:20:33;12.40;83.70
65048;DHT22;52089;51.362;-2.384;2023-01-24T11:24:15;12.50;83.60
65048;DHT22;52089;51.362;-2.384;2023-01-24T11:27:57;12.50;83.70
65048;DHT22;52089;51.362;-2.384;2023-01-24T11:31:47;12.50;83.70
65048;DHT22;52089;51.362;-2.384;2023-01-24T11:35:33;12.50;83.50
65048;DHT22;52089;51.362;-2.384;2023-01-24T11:47:15;12.50;83.30
65048;DHT22;52089;51.362;-2.384;2023-01-24T11:51:08;12.50;83.30
65048;DHT22;52089;51.362;-2.384;2023-01-24T11:59:17;12.50;83.20
65048;DHT22;52089;51.362;-2.384;2023-01-24T12:03:22;12.50;83.30
65048;DHT22;52089;51.362;-2.384;2023-01-24T12:11:16;12.60;83.20
65048;DHT22;52089;51.362;-2.384;2023-01-24T12:22:48;12.60;83.20
65048;DHT22;52089;51.362;-2.384;2023-01-24T12:26:44;12.60;83.10
65048;DHT22;52089;51.362;-2.384;2023-01-24T12:30:37;12.60;82.90
65048;DHT22;52089;51.362;-2.384;2023-01-24T12:38:38;12.60;84.00
65048;DHT22;52089;51.362;-2.384;2023-01-24T12:42:28;12.60;83.20
65048;DHT22;52089;51.362;-2.384;2023-01-24T12:46:33;12.60;83.00
65048;DHT22;52089;51.362;-2.384;2023-01-24T12:50:27;12.60;82.90
65048;DHT22;52089;51.362;-2.384;2023-01-24T12:58:37;12.60;83.20
65048;DHT22;52089;51.362;-2.384;2023-01-24T13:02:30;12.60;82.80
65048;DHT22;52089;51.362;-2.384;2023-01-24T13:18:48;12.70;82.90
65048;DHT22;52089;51.362;-2.384;2023-01-24T13:23:10;12.70;83.00
65048;DHT22;52089;51.362;-2.384;2023-01-24T13:27:29;12.70;83.00
65048;DHT22;52089;51.362;-2.384;2023-01-24T13:35:00;12.70;82.60
65048;DHT22;52089;51.362;-2.384;2023-01-24T13:38:43;12.70;82.80
65048;DHT22;52089;51.362;-2.384;2023-01-24T13:42:37;12.70;82.60
65048;DHT22;52089;51.362;-2.384;2023-01-24T13:46:20;12.80;82.60
65048;DHT22;52089;51.362;-2.384;2023-01-24T13:50:22;12.80;82.70
65048;DHT22;52089;51.362;-2.384;2023-01-24T13:54:13;12.70;82.60
65048;DHT22;52089;51.362;-2.384;2023-01-24T14:01:48;12.80;82.40
65048;DHT22;52089;51.362;-2.384;2023-01-24T14:12:55;12.80;82.40
65048;DHT22;52089;51.362;-2.384;2023-01-24T14:20:22;12.80;82.50
65048;DHT22;52089;51.362;-2.384;2023-01-24T14:24:24;12.80;82.30
65048;DHT22;52089;51.362;-2.384;2023-01-24T14:32:00;12.80;82.20
65048;DHT22;52089;51.362;-2.384;2023-01-24T14:40:18;12.90;82.40
65048;DHT22;52089;51.362;-2.384;2023-01-24T14:44:01;12.80;82.20
65048;DHT22;52089;51.362;-2.384;2023-01-24T14:47:48;12.90;82.30
65048;DHT22;52089;51.362;-2.384;2023-01-24T14:51:31;12.90;82.20
65048;DHT22;52089;51.362;-2.384;2023-01-24T14:59:10;12.90;82.20
65048;DHT22;52089;51.362;-2.384;2023-01-24T15:03:00;12.90;82.10
65048;DHT22;52089;51.362;-2.384;2023-01-24T15:07:06;12.90;82.00
65048;DHT22;52089;51.362;-2.384;2023-01-24T15:11:38;12.90;82.00
65048;DHT22;52089;51.362;-2.384;2023-01-24T15:14:55;12.90;81.90
65048;DHT22;52089;51.362;-2.384;2023-01-24T15:18:50;12.90;82.00
65048;DHT22;52089;51.362;-2.384;2023-01-24T15:22:38;12.90;81.80
65048;DHT22;52089;51.362;-2.384;2023-01-24T15:26:23;12.90;81.90
65048;DHT22;52089;51.362;-2.384;2023-01-24T15:34:16;12.90;81.70
65048;DHT22;52089;51.362;-2.384;2023-01-24T15:41:47;12.90;81.60
65048;DHT22;52089;51.362;-2.384;2023-01-24T15:45:52;12.90;81.70
65048;DHT22;52089;51.362;-2.384;2023-01-24T15:50:00;12.90;81.60
65048;DHT22;52089;51.362;-2.384;2023-01-24T15:54:04;12.90;81.60
65048;DHT22;52089;51.362;-2.384;2023-01-24T15:57:49;12.90;81.70
65048;DHT22;52089;51.362;-2.384;2023-01-24T16:01:31;12.90;81.70
65048;DHT22;52089;51.362;-2.384;2023-01-24T16:05:18;12.90;81.70
65048;DHT22;52089;51.362;-2.384;2023-01-24T16:09:01;12.90;81.50
65048;DHT22;52089;51.362;-2.384;2023-01-24T16:12:45;12.90;81.60
65048;DHT22;52089;51.362;-2.384;2023-01-24T16:16:27;12.90;81.40
65048;DHT22;52089;51.362;-2.384;2023-01-24T16:20:24;13.00;81.60
65048;DHT22;52089;51.362;-2.384;2023-01-24T16:24:08;12.90;81.40
65048;DHT22;52089;51.362;-2.384;2023-01-24T16:27:50;12.90;81.50
65048;DHT22;52089;51.362;-2.384;2023-01-24T16:31:32;12.90;81.40
65048;DHT22;52089;51.362;-2.384;2023-01-24T16:35:15;12.90;81.40
65048;DHT22;52089;51.362;-2.384;2023-01-24T16:38:56;12.90;81.30
65048;DHT22;52089;51.362;-2.384;2023-01-24T16:42:41;12.90;81.30
65048;DHT22;52089;51.362;-2.384;2023-01-24T16:46:23;12.90;81.20
65048;DHT22;52089;51.362;-2.384;2023-01-24T16:50:06;12.90;81.20
65048;DHT22;52089;51.362;-2.384;2023-01-24T16:53:48;12.90;81.20
65048;DHT22;52089;51.362;-2.384;2023-01-24T16:57:30;12.90;81.10
65048;DHT22;52089;51.362;-2.384;2023-01-24T17:01:12;12.90;81.10
65048;DHT22;52089;51.362;-2.384;2023-01-24T17:04:55;12.90;81.00
65048;DHT22;52089;51.362;-2.384;2023-01-24T17:08:36;12.90;81.10
65048;DHT22;52089;51.362;-2.384;2023-01-24T17:12:18;12.90;81.00
65048;DHT22;52089;51.362;-2.384;2023-01-24T17:16:09;12.90;81.00
65048;DHT22;52089;51.362;-2.384;2023-01-24T17:19:51;12.90;80.80
65048;DHT22;52089;51.362;-2.384;2023-01-24T17:23:34;12.90;80.90
65048;DHT22;52089;51.362;-2.384;2023-01-24T17:27:18;12.80;80.80
65048;DHT22;52089;51.362;-2.384;2023-01-24T17:31:02;12.80;80.80
65048;DHT22;52089;51.362;-2.384;2023-01-24T17:34:47;12.80;80.90
65048;DHT22;52089;51.362;-2.384;2023-01-24T17:38:29;12.80;80.80
65048;DHT22;52089;51.362;-2.384;2023-01-24T17:42:11;12.80;80.70
65048;DHT22;52089;51.362;-2.384;2023-01-24T17:45:56;12.80;80.70
65048;DHT22;52089;51.362;-2.384;2023-01-24T17:49:38;12.80;80.60
65048;DHT22;52089;51.362;-2.384;2023-01-24T17:53:22;12.80;80.70
65048;DHT22;52089;51.362;-2.384;2023-01-24T17:57:04;12.90;80.70
65048;DHT22;52089;51.362;-2.384;2023-01-24T18:00:46;12.90;80.60
65048;DHT22;52089;51.362;-2.384;2023-01-24T18:04:28;12.80;80.60
65048;DHT22;52089;51.362;-2.384;2023-01-24T18:08:09;12.80;80.60
65048;DHT22;52089;51.362;-2.384;2023-01-24T18:11:51;12.80;80.50
65048;DHT22;52089;51.362;-2.384;2023-01-24T18:15:33;12.80;80.60
65048;DHT22;52089;51.362;-2.384;2023-01-24T18:19:15;12.80;80.40
65048;DHT22;52089;51.362;-2.384;2023-01-24T18:22:57;12.80;80.40
65048;DHT22;52089;51.362;-2.384;2023-01-24T18:26:39;12.80;80.30
65048;DHT22;52089;51.362;-2.384;2023-01-24T18:30:21;12.80;80.30
65048;DHT22;52089;51.362;-2.384;2023-01-24T18:34:02;12.80;80.30
65048;DHT22;52089;51.362;-2.384;2023-01-24T18:37:44;12.80;80.30
65048;DHT22;52089;51.362;-2.384;2023-01-24T18:41:26;12.80;80.20
65048;DHT22;52089;51.362;-2.384;2023-01-24T18:45:09;12.80;80.20
65048;DHT22;52089;51.362;-2.384;2023-01-24T18:48:51;12.80;80.10
65048;DHT22;52089;51.362;-2.384;2023-01-24T18:52:33;12.80;80.10
65048;DHT22;52089;51.362;-2.384;2023-01-24T18:56:15;12.80;80.10
65048;DHT22;52089;51.362;-2.384;2023-01-24T19:00:00;12.80;80.00
65048;DHT22;52089;51.362;-2.384;2023-01-24T19:03:42;12.80;80.00
65048;DHT22;52089;51.362;-2.384;2023-01-24T19:07:24;12.80;80.00
65048;DHT22;52089;51.362;-2.384;2023-01-24T19:11:14;12.80;79.90
65048;DHT22;52089;51.362;-2.384;2023-01-24T19:14:56;12.70;79.70
65048;DHT22;52089;51.362;-2.384;2023-01-24T19:18:38;12.80;80.60
65048;DHT22;52089;51.362;-2.384;2023-01-24T19:22:20;12.80;80.00
65048;DHT22;52089;51.362;-2.384;2023-01-24T19:26:04;12.80;79.90
65048;DHT22;52089;51.362;-2.384;2023-01-24T19:29:46;12.80;79.80
65048;DHT22;52089;51.362;-2.384;2023-01-24T19:33:28;12.70;79.80
65048;DHT22;52089;51.362;-2.384;2023-01-24T19:37:10;12.70;79.60
65048;DHT22;52089;51.362;-2.384;2023-01-24T19:40:53;12.70;79.70
65048;DHT22;52089;51.362;-2.384;2023-01-24T19:44:35;12.70;79.70
65048;DHT22;52089;51.362;-2.384;2023-01-24T19:48:17;12.70;79.60
65048;DHT22;52089;51.362;-2.384;2023-01-24T19:51:59;12.80;79.60
65048;DHT22;52089;51.362;-2.384;2023-01-24T19:55:40;12.70;79.60
65048;DHT22;52089;51.362;-2.384;2023-01-24T19:59:22;12.70;79.50
65048;DHT22;52089;51.362;-2.384;2023-01-24T20:03:04;12.70;79.50
65048;DHT22;52089;51.362;-2.384;2023-01-24T20:06:46;12.70;79.40
65048;DHT22;52089;51.362;-2.384;2023-01-24T20:10:27;12.70;79.40
65048;DHT22;52089;51.362;-2.384;2023-01-24T20:14:09;12.80;79.40
65048;DHT22;52089;51.362;-2.384;2023-01-24T20:17:51;12.70;79.30
65048;DHT22;52089;51.362;-2.384;2023-01-24T20:21:33;12.70;79.30
65048;DHT22;52089;51.362;-2.384;2023-01-24T20:25:15;12.70;79.30
65048;DHT22;52089;51.362;-2.384;2023-01-24T20:29:00;12.70;79.20
65048;DHT22;52089;51.362;-2.384;2023-01-24T20:32:42;12.70;79.20
65048;DHT22;52089;51.362;-2.384;2023-01-24T20:36:24;12.70;79.20
65048;DHT22;52089;51.362;-2.384;2023-01-24T20:40:06;12.70;79.40
65048;DHT22;52089;51.362;-2.384;2023-01-24T20:43:49;12.70;79.10
65048;DHT22;52089;51.362;-2.384;2023-01-24T20:47:35;12.70;79.10
65048;DHT22;52089;51.362;-2.384;2023-01-24T20:51:18;12.70;79.00
65048;DHT22;52089;51.362;-2.384;2023-01-24T20:55:00;12.70;79.00
65048;DHT22;52089;51.362;-2.384;2023-01-24T20:58:42;12.70;79.00
65048;DHT22;52089;51.362;-2.384;2023-01-24T21:02:24;12.70;78.90
65048;DHT22;52089;51.362;-2.384;2023-01-24T21:06:07;12.70;78.90
65048;DHT22;52089;51.362;-2.384;2023-01-24T21:09:49;12.70;78.80
65048;DHT22;52089;51.362;-2.384;2023-01-24T21:13:32;12.70;78.90
65048;DHT22;52089;51.362;-2.384;2023-01-24T21:17:21;12.70;78.70
65048;DHT22;52089;51.362;-2.384;2023-01-24T21:21:11;12.70;78.80
65048;DHT22;52089;51.362;-2.384;2023-01-24T21:24:53;12.70;78.80
65048;DHT22;52089;51.362;-2.384;2023-01-24T21:28:35;12.70;78.70
65048;DHT22;52089;51.362;-2.384;2023-01-24T21:32:16;12.70;78.70
65048;DHT22;52089;51.362;-2.384;2023-01-24T21:36:07;12.70;78.60
65048;DHT22;52089;51.362;-2.384;2023-01-24T21:39:49;12.80;78.50
65048;DHT22;52089;51.362;-2.384;2023-01-24T21:43:31;12.70;78.50
65048;DHT22;52089;51.362;-2.384;2023-01-24T21:47:13;12.70;78.50
65048;DHT22;52089;51.362;-2.384;2023-01-24T21:51:00;12.70;78.40
65048;DHT22;52089;51.362;-2.384;2023-01-24T21:54:42;12.70;78.30
65048;DHT22;52089;51.362;-2.384;2023-01-24T21:58:24;12.70;78.40
65048;DHT22;52089;51.362;-2.384;2023-01-24T22:02:08;12.70;78.40
65048;DHT22;52089;51.362;-2.384;2023-01-24T22:05:50;12.80;78.30
65048;DHT22;52089;51.362;-2.384;2023-01-24T22:09:32;12.70;78.30
65048;DHT22;52089;51.362;-2.384;2023-01-24T22:13:14;12.70;78.90
65048;DHT22;52089;51.362;-2.384;2023-01-24T22:16:58;12.80;78.30
65048;DHT22;52089;51.362;-2.384;2023-01-24T22:20:40;12.70;78.10
65048;DHT22;52089;51.362;-2.384;2023-01-24T22:25:09;12.70;78.10
65048;DHT22;52089;51.362;-2.384;2023-01-24T22:28:39;12.70;77.90
65048;DHT22;52089;51.362;-2.384;2023-01-24T22:32:21;12.70;78.00
65048;DHT22;52089;51.362;-2.384;2023-01-24T22:36:03;12.70;78.00
65048;DHT22;52089;51.362;-2.384;2023-01-24T22:39:45;12.70;78.50
65048;DHT22;52089;51.362;-2.384;2023-01-24T22:43:27;12.70;77.90
65048;DHT22;52089;51.362;-2.384;2023-01-24T22:47:09;12.70;77.80
65048;DHT22;52089;51.362;-2.384;2023-01-24T22:50:54;12.70;77.80
65048;DHT22;52089;51.362;-2.384;2023-01-24T22:54:37;12.70;77.60
65048;DHT22;52089;51.362;-2.384;2023-01-24T22:58:19;12.70;77.70
65048;DHT22;52089;51.362;-2.384;2023-01-24T23:02:00;12.80;77.70
65048;DHT22;52089;51.362;-2.384;2023-01-24T23:05:42;12.70;77.60
65048;DHT22;52089;51.362;-2.384;2023-01-24T23:09:24;12.70;77.60
65048;DHT22;52089;51.362;-2.384;2023-01-24T23:13:07;12.70;77.60
65048;DHT22;52089;51.362;-2.384;2023-01-24T23:17:08;12.80;77.50
65048;DHT22;52089;51.362;-2.384;2023-01-24T23:20:51;12.70;77.50
65048;DHT22;52089;51.362;-2.384;2023-01-24T23:24:53;12.70;77.40
65048;DHT22;52089;51.362;-2.384;2023-01-24T23:28:36;12.70;77.40
65048;DHT22;52089;51.362;-2.384;2023-01-24T23:32:31;12.70;77.80
65048;DHT22;52089;51.362;-2.384;2023-01-24T23:36:17;12.70;77.20
65048;DHT22;52089;51.362;-2.384;2023-01-24T23:39:59;12.70;77.30
65048;DHT22;52089;51.362;-2.384;2023-01-24T23:43:41;12.70;77.20
65048;DHT22;52089;51.362;-2.384;2023-01-24T23:47:23;12.70;77.20
65048;DHT22;52089;51.362;-2.384;2023-01-24T23:51:05;12.70;77.10
65048;DHT22;52089;51.362;-2.384;2023-01-24T23:54:47;12.70;77.10
65048;DHT22;52089;51.362;-2.384;2023-01-24T23:58:29;12.70;77.10
